createdAt,value
2023-01-06T08:31:16.014Z,100964.68
2023-01-06T08:53:43.563Z,100985.75
2023-01-06T08:53:50.538Z,100982.78
2023-01-06T08:56:54.780Z,100986.35
2023-01-06T08:59:55.563Z,100984.84
2023-01-06T09:04:11.519Z,100987.19
2023-01-06T11:27:24.860Z,100908.38
2023-01-06T11:30:05.615Z,100902.12
2023-01-06T11:32:43.560Z,100895.29
2023-01-06T11:35:22.953Z,100892.64
2023-01-06T11:38:03.193Z,100887.90
2023-01-06T11:40:36.252Z,100886.79
2023-01-06T11:43:13.662Z,100891.23
2023-01-06T11:45:59.491Z,100886.62
2023-01-06T11:48:39.901Z,100875.94
2023-01-06T11:51:20.870Z,100871.19
2023-01-06T11:55:00.806Z,100867.91
2023-01-06T11:58:07.381Z,100868.76
2023-01-06T12:00:57.756Z,100864.80
2023-01-06T12:03:57.786Z,100859.77
2023-01-06T12:11:18.756Z,100866.74
2023-01-06T12:14:27.979Z,100863.80
2023-01-06T12:17:28.851Z,100868.11
2023-01-06T12:20:38.771Z,100860.81
2023-01-06T12:23:55.303Z,100848.86
2023-01-06T12:26:35.442Z,100853.77
2023-01-06T12:29:28.029Z,100862.61
2023-01-06T12:32:46.632Z,100858.39
2023-01-06T12:35:34.399Z,100854.36
2023-01-06T12:38:24.707Z,100850.95
2023-01-06T12:41:29.805Z,100852.66
2023-01-06T12:44:32.092Z,100847.02
2023-01-06T12:47:39.664Z,100842.40
2023-01-06T12:50:38.786Z,100839.88
2023-01-06T12:53:29.615Z,100837.76
2023-01-06T12:56:19.352Z,100834.98
2023-01-06T12:59:37.005Z,100833.75
2023-01-06T13:02:36.843Z,100834.23
2023-01-06T13:05:37.383Z,100843.39
2023-01-06T13:08:25.117Z,100847.35
2023-01-06T13:11:24.206Z,100850.00
2023-01-06T13:14:10.984Z,100851.64
2023-01-06T13:16:58.887Z,100848.21
2023-01-06T13:19:50.985Z,100848.52
2023-01-06T13:22:48.902Z,100847.25
2023-01-06T13:25:23.789Z,100841.91
2023-01-06T13:28:25.680Z,100842.77
2023-01-06T13:31:23.961Z,100840.23
2023-01-06T13:34:25.899Z,100832.67
2023-01-06T13:37:30.485Z,100827.29
2023-01-06T13:40:15.572Z,100825.46
2023-01-06T13:42:56.817Z,100823.97
2023-01-06T13:45:43.988Z,100824.33
2023-01-06T13:48:32.143Z,100821.00
2023-01-06T13:51:15.764Z,100816.48
2023-01-06T13:54:16.953Z,100800.13
2023-01-06T13:57:28.655Z,100796.45
2023-01-06T14:00:16.755Z,100785.80
2023-01-06T14:03:12.146Z,100781.63
2023-01-06T14:06:25.010Z,100777.02
2023-01-06T14:09:28.339Z,100768.42
2023-01-06T14:12:52.370Z,100763.97
2023-01-06T14:15:58.081Z,100762.64
2023-01-06T14:19:10.469Z,100763.81
2023-01-06T14:22:09.657Z,100761.06
2023-01-06T14:25:10.404Z,100764.82
2023-01-06T14:27:56.128Z,100762.83
2023-01-06T14:30:44.322Z,100767.67
2023-01-06T14:34:14.805Z,100773.02
2023-01-06T14:40:36.706Z,100789.97
2023-01-06T14:43:40.227Z,100794.47
2023-01-06T14:46:54.296Z,100798.09
2023-01-06T14:50:01.832Z,100799.02
2023-01-06T14:52:40.067Z,100801.12
2023-01-06T14:55:22.136Z,100803.27
2023-01-06T14:58:06.280Z,100803.23
2023-01-06T15:00:38.687Z,100808.58
2023-01-06T15:03:38.671Z,100807.77
2023-01-06T15:06:46.356Z,100802.50
2023-01-06T15:09:29.519Z,100799.02
2023-01-06T15:18:42.509Z,100777.02
2023-01-06T15:22:21.282Z,100773.45
2023-01-06T15:25:02.097Z,100763.13
2023-01-06T15:27:49.059Z,100758.27
2023-01-06T15:30:43.263Z,100748.70
2023-01-06T15:37:21.079Z,100736.88
2023-01-06T15:40:18.753Z,100732.73
2023-01-06T15:43:21.745Z,100732.06
2023-01-06T15:46:28.009Z,100725.11
2023-01-06T15:53:52.301Z,100720.13
2023-01-06T15:57:54.144Z,100725.87
2023-01-06T16:01:11.025Z,100729.24
2023-01-06T16:04:24.490Z,100726.83
2023-01-06T16:07:43.190Z,100723.39
2023-01-06T16:10:54.831Z,100719.12
2023-01-06T16:14:04.775Z,100715.14
2023-01-06T16:16:57.213Z,100718.05
2023-01-06T16:20:25.698Z,100712.59
2023-01-06T16:33:01.962Z,100693.05
2023-01-06T16:35:57.957Z,100687.34
2023-01-06T16:38:45.989Z,100688.10
2023-01-06T16:41:36.278Z,100684.66
2023-01-06T16:45:13.075Z,100678.94
2023-01-06T16:48:02.424Z,100670.80
2023-01-06T16:50:52.496Z,100664.96
2023-01-06T16:53:38.221Z,100661.60
2023-01-06T16:56:29.039Z,100653.87
2023-01-06T16:59:25.690Z,100652.50
2023-01-06T17:02:36.571Z,100648.58
2023-01-06T17:05:30.503Z,100652.23
2023-01-06T17:08:31.140Z,100652.75
2023-01-06T17:11:26.951Z,100650.00
2023-01-06T17:14:55.387Z,100650.66
2023-01-06T17:17:52.532Z,100639.20
2023-01-06T17:20:41.395Z,100632.05
2023-01-06T17:23:27.084Z,100624.38
2023-01-06T17:26:41.024Z,100619.25
2023-01-06T17:29:58.281Z,100618.67
2023-01-06T17:32:44.057Z,100615.98
2023-01-06T17:35:41.493Z,100618.60
2023-01-06T17:38:34.692Z,100617.09
2023-01-06T17:41:19.976Z,100613.07
2023-01-06T17:44:05.741Z,100611.58
2023-01-06T17:47:07.341Z,100612.05
2023-01-06T17:49:53.715Z,100611.23
2023-01-06T17:53:12.805Z,100613.54
2023-01-06T17:56:03.867Z,100606.58
2023-01-06T17:58:57.359Z,100608.08
2023-01-06T18:02:22.022Z,100594.94
2023-01-06T18:05:37.822Z,100586.20
2023-01-06T18:08:11.148Z,100591.81
2023-01-06T18:10:52.471Z,100597.06
2023-01-06T18:13:32.907Z,100596.16
2023-01-06T18:16:27.444Z,100590.97
2023-01-06T18:19:30.370Z,100591.36
2023-01-06T18:22:30.116Z,100583.87
2023-01-06T18:25:36.519Z,100570.25
2023-01-06T18:32:27.784Z,100557.05
2023-01-06T18:36:09.468Z,100554.45
2023-01-06T18:39:05.051Z,100561.24
2023-01-06T18:41:44.765Z,100567.09
2023-01-06T18:47:27.395Z,100565.23
2023-01-06T18:50:33.070Z,100556.40
2023-01-06T18:53:15.208Z,100531.17
2023-01-06T18:55:56.536Z,100522.72
2023-01-06T18:58:57.174Z,100515.77
2023-01-06T19:01:57.932Z,100519.69
2023-01-06T19:04:44.678Z,100515.45
2023-01-06T19:07:36.819Z,100512.91
2023-01-06T19:10:33.668Z,100512.83
2023-01-06T19:13:22.859Z,100512.60
2023-01-06T19:16:37.456Z,100508.05
2023-01-06T19:19:34.072Z,100506.89
2023-01-06T19:22:41.629Z,100497.89
2023-01-06T19:25:41.032Z,100499.31
2023-01-06T19:28:30.523Z,100500.31
2023-01-06T19:31:20.185Z,100499.05
2023-01-06T19:34:02.319Z,100499.96
2023-01-06T19:36:39.407Z,100497.77
2023-01-06T19:39:38.165Z,100491.45
2023-01-06T19:42:28.777Z,100489.80
2023-01-06T19:45:22.561Z,100498.47
2023-01-06T19:48:35.103Z,100499.27
2023-01-06T19:51:33.229Z,100495.63
2023-01-06T19:54:40.609Z,100493.47
2023-01-06T20:00:55.798Z,100485.11
2023-01-06T20:04:03.219Z,100479.70
2023-01-06T20:20:31.677Z,100471.88
2023-01-06T20:23:50.520Z,100470.77
2023-01-06T20:26:41.048Z,100467.92
2023-01-06T20:29:22.325Z,100467.91
2023-01-06T20:35:29.324Z,100472.73
2023-01-06T20:38:32.300Z,100469.85
2023-01-06T20:44:40.101Z,100472.63
2023-01-06T20:47:33.300Z,100477.52
2023-01-06T20:53:29.959Z,100493.42
2023-01-06T20:56:13.747Z,100493.09
2023-01-06T20:58:55.211Z,100491.72
2023-01-06T21:01:49.968Z,100497.96
2023-01-06T21:04:30.797Z,100499.20
2023-01-06T21:07:12.585Z,100497.98
2023-01-06T21:09:54.050Z,100495.94
2023-01-06T21:12:34.668Z,100491.54
2023-01-06T21:15:16.654Z,100497.59
2023-01-06T21:17:55.522Z,100499.30
2023-01-06T21:20:38.330Z,100494.42
2023-01-06T21:23:13.206Z,100490.70
2023-01-06T21:25:51.480Z,100486.71
2023-01-06T21:28:28.640Z,100487.78
2023-01-06T21:31:02.278Z,100485.92
2023-01-06T21:33:49.140Z,100488.27
2023-01-06T21:36:42.763Z,100488.36
2023-01-06T21:39:22.298Z,100488.84
2023-01-06T21:42:21.930Z,100489.50
2023-01-06T21:45:05.128Z,100485.06
2023-01-06T21:47:51.650Z,100485.63
2023-01-06T21:50:32.949Z,100488.09
2023-01-06T21:53:15.105Z,100484.64
2023-01-06T21:56:09.390Z,100482.77
2023-01-06T21:59:07.953Z,100484.69
2023-01-06T22:05:23.068Z,100483.61
2023-01-06T22:11:51.980Z,100487.08
2023-01-06T22:15:06.756Z,100479.48
2023-01-06T22:18:30.493Z,100483.94
2023-01-06T22:32:54.450Z,100504.16
2023-01-06T22:42:57.655Z,100501.02
2023-01-06T22:46:25.837Z,100501.45
2023-01-06T22:49:37.257Z,100507.23
2023-01-06T22:52:48.686Z,100513.10
2023-01-06T22:59:32.198Z,100502.20
2023-01-06T23:02:35.751Z,100506.98
2023-01-06T23:05:46.490Z,100508.95
2023-01-06T23:08:59.812Z,100511.67
2023-01-06T23:12:08.812Z,100512.74
2023-01-06T23:15:03.825Z,100522.45
2023-01-06T23:18:16.480Z,100521.89
2023-01-06T23:21:21.388Z,100527.64
2023-01-06T23:30:50.596Z,100534.42
2023-01-06T23:36:54.457Z,100545.58
2023-01-06T23:43:12.047Z,100547.85
2023-01-06T23:53:23.081Z,100558.05
